createdAt,value
2017-09-22T00:00:49.408Z,70.33
2017-09-22T00:03:16.572Z,70.34
2017-09-22T00:05:43.724Z,70.33
2017-09-22T00:08:11.090Z,70.33
2017-09-22T00:10:38.237Z,70.33
2017-09-22T00:13:05.416Z,70.33
2017-09-22T00:15:32.566Z,70.33
2017-09-22T00:17:59.725Z,70.33
2017-09-22T00:20:26.874Z,70.33
2017-09-22T00:22:54.021Z,70.34
2017-09-22T00:25:21.708Z,70.33
2017-09-22T00:27:48.887Z,70.34
2017-09-22T00:30:16.039Z,70.34
2017-09-22T00:32:43.204Z,70.33
2017-09-22T00:35:10.383Z,70.32
2017-09-22T00:37:37.529Z,70.32
2017-09-22T00:40:04.673Z,70.31
2017-09-22T00:42:31.813Z,70.31
2017-09-22T00:44:59.004Z,70.31
2017-09-22T00:47:26.910Z,70.31
2017-09-22T00:49:54.076Z,70.31
2017-09-22T00:52:21.226Z,70.30
2017-09-22T00:54:48.558Z,70.30
2017-09-22T00:57:15.698Z,70.30
2017-09-22T00:59:43.478Z,70.30
2017-09-22T01:02:10.643Z,70.30
2017-09-22T01:04:37.964Z,70.30
2017-09-22T01:07:05.140Z,70.30
2017-09-22T01:09:33.014Z,70.30
2017-09-22T01:12:00.760Z,70.30
2017-09-22T01:14:28.193Z,70.30
2017-09-22T01:16:56.445Z,70.29
2017-09-22T01:19:24.602Z,70.30
2017-09-22T01:21:54.532Z,70.28
2017-09-22T01:24:21.776Z,70.27
2017-09-22T01:26:49.615Z,70.27
2017-09-22T01:29:16.816Z,70.27
2017-09-22T01:31:44.148Z,70.27
2017-09-22T01:34:12.302Z,70.26
2017-09-22T01:36:39.502Z,70.27
2017-09-22T01:39:07.091Z,70.28
2017-09-22T01:41:34.490Z,70.27
2017-09-22T01:44:02.147Z,70.27
2017-09-22T01:46:29.902Z,70.27
2017-09-22T01:48:57.225Z,70.25
2017-09-22T01:51:24.424Z,70.26
2017-09-22T01:53:51.691Z,70.26
2017-09-22T01:56:18.843Z,70.26
2017-09-22T01:58:45.990Z,70.26
2017-09-22T02:01:13.131Z,70.27
2017-09-22T02:03:40.271Z,70.26
2017-09-22T02:06:07.413Z,70.28
2017-09-22T02:08:34.565Z,70.27
2017-09-22T02:11:01.701Z,70.27
2017-09-22T02:13:28.842Z,70.26
2017-09-22T02:15:55.996Z,70.25
2017-09-22T02:18:23.129Z,70.24
2017-09-22T02:20:50.284Z,70.24
2017-09-22T02:23:17.448Z,70.25
2017-09-22T02:25:44.585Z,70.24
2017-09-22T02:28:11.748Z,70.24
2017-09-22T02:30:38.901Z,70.25
2017-09-22T02:33:06.217Z,70.25
2017-09-22T02:35:34.125Z,70.26
2017-09-22T02:38:01.280Z,70.25
2017-09-22T02:40:28.444Z,70.25
2017-09-22T02:42:55.594Z,70.26
2017-09-22T02:45:22.738Z,70.25
2017-09-22T02:47:49.909Z,70.24
2017-09-22T02:50:17.065Z,70.24
2017-09-22T02:52:44.206Z,70.24
2017-09-22T02:55:11.360Z,70.24
2017-09-22T02:57:38.510Z,70.24
2017-09-22T03:00:05.668Z,70.23
2017-09-22T03:02:32.820Z,70.23
2017-09-22T03:04:59.973Z,70.24
2017-09-22T03:07:27.114Z,70.24
2017-09-22T03:09:54.284Z,70.25
2017-09-22T03:12:21.417Z,70.24
2017-09-22T03:14:48.568Z,70.25
2017-09-22T03:17:15.728Z,70.24
2017-09-22T03:19:42.866Z,70.24
2017-09-22T03:22:10.007Z,70.25
2017-09-22T03:24:37.150Z,70.24
2017-09-22T03:27:04.303Z,70.24
2017-09-22T03:29:31.437Z,70.23
2017-09-22T03:31:58.593Z,70.24
2017-09-22T03:34:25.747Z,70.23
2017-09-22T03:36:52.885Z,70.24
2017-09-22T03:39:20.018Z,70.24
2017-09-22T03:41:47.173Z,70.23
2017-09-22T03:44:14.305Z,70.23
2017-09-22T03:46:41.442Z,70.23
2017-09-22T03:49:08.578Z,70.23
2017-09-22T03:51:35.815Z,70.22
2017-09-22T03:54:02.968Z,70.22
2017-09-22T03:56:30.128Z,70.21
2017-09-22T03:58:57.283Z,70.23
2017-09-22T04:01:24.440Z,70.22
2017-09-22T04:03:51.583Z,70.22
2017-09-22T04:06:18.736Z,70.22
2017-09-22T04:08:45.873Z,70.23
2017-09-22T04:11:13.016Z,70.23
2017-09-22T04:13:40.177Z,70.22
2017-09-22T04:16:07.331Z,70.22
2017-09-22T04:18:34.472Z,70.21
2017-09-22T04:21:01.605Z,70.22
2017-09-22T04:23:28.738Z,70.21
2017-09-22T04:25:55.877Z,70.22
2017-09-22T04:28:23.011Z,70.22
2017-09-22T04:30:50.172Z,70.20
2017-09-22T04:33:17.310Z,70.21
2017-09-22T04:35:44.447Z,70.20
2017-09-22T04:38:11.607Z,70.22
2017-09-22T04:40:38.753Z,70.20
2017-09-22T04:43:05.898Z,70.19
2017-09-22T04:45:33.051Z,70.20
2017-09-22T04:48:00.361Z,70.19
2017-09-22T04:50:27.505Z,70.19
2017-09-22T04:52:54.640Z,70.19
2017-09-22T04:55:21.801Z,70.19
2017-09-22T04:57:48.949Z,70.19
2017-09-22T05:00:17.134Z,70.19
2017-09-22T05:02:44.301Z,70.19
2017-09-22T05:05:11.454Z,70.18
2017-09-22T05:07:38.632Z,70.18
2017-09-22T05:10:05.789Z,70.18
2017-09-22T05:12:32.958Z,70.17
2017-09-22T05:15:00.110Z,70.18
2017-09-22T05:17:27.249Z,70.17
2017-09-22T05:19:54.389Z,70.17
2017-09-22T05:22:21.547Z,70.16
2017-09-22T05:24:48.707Z,70.17
2017-09-22T05:27:15.876Z,70.17
2017-09-22T05:29:43.023Z,70.17
2017-09-22T05:32:10.170Z,70.17
2017-09-22T05:34:37.469Z,70.17
2017-09-22T05:37:04.609Z,70.17
2017-09-22T05:39:32.522Z,70.11
2017-09-22T05:41:59.665Z,70.05
2017-09-22T05:44:26.820Z,70.04
2017-09-22T05:46:53.976Z,70.02
2017-09-22T05:49:21.130Z,70.02
2017-09-22T05:51:48.279Z,70.03
2017-09-22T05:54:15.444Z,70.06
2017-09-22T05:56:42.602Z,70.07
2017-09-22T05:59:09.746Z,70.09
2017-09-22T06:01:36.890Z,70.10
2017-09-22T06:04:04.047Z,70.11
2017-09-22T06:06:31.207Z,70.11
2017-09-22T06:08:58.373Z,70.13
2017-09-22T06:11:25.527Z,70.13
2017-09-22T06:13:52.665Z,70.14
2017-09-22T06:16:19.814Z,70.14
2017-09-22T06:18:46.953Z,70.14
2017-09-22T06:21:14.135Z,70.14
2017-09-22T06:23:41.281Z,70.14
2017-09-22T06:26:08.426Z,70.14
2017-09-22T06:28:35.569Z,70.14
2017-09-22T06:31:02.731Z,70.14
2017-09-22T06:33:29.923Z,70.14
2017-09-22T06:35:57.062Z,70.15
2017-09-22T06:38:24.224Z,70.12
2017-09-22T06:40:51.389Z,70.08
2017-09-22T06:43:18.529Z,70.06
2017-09-22T06:45:45.668Z,70.06
2017-09-22T06:48:12.825Z,70.02
2017-09-22T06:50:39.974Z,70.01
2017-09-22T06:53:07.121Z,70.02
2017-09-22T06:55:34.280Z,70.04
2017-09-22T06:58:01.439Z,70.06
2017-09-22T07:00:28.596Z,70.07
2017-09-22T07:02:55.756Z,70.08
2017-09-22T07:05:22.897Z,70.10
2017-09-22T07:07:50.058Z,70.10
2017-09-22T07:10:17.223Z,70.11
2017-09-22T07:12:45.149Z,70.11
2017-09-22T07:15:12.313Z,70.13
2017-09-22T07:17:39.469Z,70.13
2017-09-22T07:20:06.635Z,70.13
2017-09-22T07:22:33.772Z,70.35
2017-09-22T07:25:01.074Z,70.17
2017-09-22T07:27:28.231Z,70.15
2017-09-22T07:29:55.400Z,70.07
2017-09-22T07:32:22.559Z,70.06
2017-09-22T07:34:49.702Z,70.05
2017-09-22T07:37:16.845Z,70.06
2017-09-22T07:39:43.990Z,70.08
2017-09-22T07:42:11.153Z,70.09
2017-09-22T07:44:38.297Z,70.11
2017-09-22T07:47:05.474Z,70.10
2017-09-22T07:49:32.640Z,70.11
2017-09-22T07:51:59.781Z,70.13
2017-09-22T07:54:27.717Z,70.14
2017-09-22T07:56:54.857Z,70.14
2017-09-22T07:59:22.028Z,70.15
2017-09-22T08:01:49.188Z,70.15
2017-09-22T08:04:16.330Z,70.15
2017-09-22T08:06:43.488Z,70.16
2017-09-22T08:09:10.660Z,70.16
2017-09-22T08:11:37.801Z,70.16
2017-09-22T08:14:04.959Z,70.17
2017-09-22T08:16:32.124Z,70.17
2017-09-22T08:19:00.045Z,70.17
2017-09-22T08:21:27.198Z,70.18
2017-09-22T08:23:54.338Z,70.18
2017-09-22T08:26:21.496Z,70.18
2017-09-22T08:28:48.648Z,70.19
2017-09-22T08:31:15.804Z,70.19
2017-09-22T08:33:42.958Z,70.19
2017-09-22T08:36:10.109Z,70.19
2017-09-22T08:38:37.274Z,70.20
2017-09-22T08:41:04.761Z,70.19
2017-09-22T08:43:31.924Z,70.20
2017-09-22T08:45:59.071Z,70.20
2017-09-22T08:48:26.221Z,70.20
2017-09-22T08:50:53.362Z,70.21
2017-09-22T08:53:20.510Z,70.20
2017-09-22T08:55:47.653Z,70.21
2017-09-22T08:58:14.798Z,70.21
2017-09-22T09:00:41.945Z,70.22
2017-09-22T09:03:09.109Z,70.22
2017-09-22T09:05:36.253Z,70.20
2017-09-22T09:08:03.396Z,70.20
2017-09-22T09:10:30.549Z,70.21
2017-09-22T09:12:57.702Z,70.21
2017-09-22T09:15:24.873Z,70.22
2017-09-22T09:17:52.786Z,70.21
2017-09-22T09:20:19.929Z,70.22
2017-09-22T09:22:47.092Z,70.22
2017-09-22T09:25:14.256Z,70.24
2017-09-22T09:27:41.397Z,70.25
2017-09-22T09:30:08.567Z,70.25
2017-09-22T09:32:35.714Z,70.26
2017-09-22T09:35:02.861Z,70.26
2017-09-22T09:37:30.030Z,70.25
2017-09-22T09:39:57.191Z,70.26
2017-09-22T09:42:24.347Z,70.26
2017-09-22T09:44:51.489Z,70.25
2017-09-22T09:47:18.647Z,70.26
2017-09-22T09:49:45.812Z,70.26
2017-09-22T09:52:12.971Z,70.26
2017-09-22T09:54:41.008Z,70.26
2017-09-22T09:57:08.195Z,70.27
2017-09-22T09:59:35.827Z,70.28
2017-09-22T10:02:02.989Z,70.27
2017-09-22T10:04:30.406Z,70.27
2017-09-22T10:06:58.321Z,70.28
2017-09-22T10:09:26.055Z,70.28
2017-09-22T10:11:53.243Z,70.28
2017-09-22T10:14:20.400Z,70.29
2017-09-22T10:16:47.720Z,70.28
2017-09-22T10:19:15.579Z,70.30
2017-09-22T10:21:42.783Z,70.31
2017-09-22T10:24:09.945Z,70.30
2017-09-22T10:26:37.100Z,70.31
2017-09-22T10:29:04.242Z,70.30
2017-09-22T10:31:31.385Z,70.30
2017-09-22T10:33:58.539Z,70.31
2017-09-22T10:36:25.701Z,70.30
2017-09-22T10:38:52.856Z,70.30
2017-09-22T10:41:20.005Z,70.29
2017-09-22T10:43:47.521Z,70.30
2017-09-22T10:46:14.679Z,70.30
2017-09-22T10:48:41.844Z,70.31
2017-09-22T10:51:08.990Z,70.31
2017-09-22T10:53:36.198Z,70.31
2017-09-22T10:56:03.337Z,70.31
2017-09-22T10:58:30.482Z,70.31
2017-09-22T11:00:57.622Z,70.31
2017-09-22T11:03:25.529Z,70.31
2017-09-22T11:05:52.693Z,70.32
2017-09-22T11:08:19.849Z,70.32
2017-09-22T11:10:46.998Z,70.33
2017-09-22T11:13:14.147Z,70.34
2017-09-22T11:15:41.820Z,70.34
2017-09-22T11:18:08.974Z,70.34
2017-09-22T11:20:36.113Z,70.34
2017-09-22T11:23:03.296Z,70.34
2017-09-22T11:25:30.460Z,70.34
2017-09-22T11:27:57.605Z,70.35
2017-09-22T11:30:25.526Z,70.34
2017-09-22T11:32:52.701Z,70.35
2017-09-22T11:35:19.845Z,70.34
2017-09-22T11:37:46.996Z,70.35
2017-09-22T11:40:14.163Z,70.35
2017-09-22T11:42:42.079Z,70.35
2017-09-22T11:45:09.221Z,70.35
2017-09-22T11:47:36.361Z,70.34
2017-09-22T11:50:03.516Z,70.34
2017-09-22T11:52:30.679Z,70.35
2017-09-22T11:54:57.833Z,70.35
2017-09-22T11:57:24.965Z,70.35
2017-09-22T11:59:52.120Z,70.35
2017-09-22T12:02:19.258Z,70.35
2017-09-22T12:04:46.978Z,70.35
2017-09-22T12:07:14.127Z,70.36
2017-09-22T12:09:41.281Z,70.36
2017-09-22T12:12:08.422Z,70.36
2017-09-22T12:14:35.834Z,70.38
2017-09-22T12:17:02.997Z,70.37
2017-09-22T12:19:30.150Z,70.37
2017-09-22T12:21:57.295Z,70.37
2017-09-22T12:24:24.455Z,70.38
2017-09-22T12:26:51.602Z,70.38
2017-09-22T12:29:18.763Z,70.37
2017-09-22T12:31:45.927Z,70.37
2017-09-22T12:34:13.089Z,70.39
2017-09-22T12:36:41.020Z,70.40
2017-09-22T12:39:08.175Z,70.40
2017-09-22T12:41:35.340Z,70.40
2017-09-22T12:44:02.500Z,70.56
2017-09-22T12:46:30.015Z,70.64
2017-09-22T12:48:57.179Z,70.68
2017-09-22T12:51:24.336Z,70.72
2017-09-22T12:53:51.492Z,70.71
2017-09-22T12:56:18.649Z,70.75
2017-09-22T12:58:45.824Z,70.76
2017-09-22T13:01:12.989Z,70.74
2017-09-22T13:03:40.162Z,70.75
2017-09-22T13:06:07.317Z,70.78
2017-09-22T13:08:34.495Z,70.80
2017-09-22T13:11:01.721Z,70.80
2017-09-22T13:13:28.889Z,70.78
2017-09-22T13:15:56.064Z,70.79
2017-09-22T13:18:23.206Z,70.79
2017-09-22T13:20:50.363Z,70.80
2017-09-22T13:23:17.510Z,70.79
2017-09-22T13:25:44.654Z,70.81
2017-09-22T13:28:11.792Z,70.83
2017-09-22T13:30:38.954Z,70.83
2017-09-22T13:33:06.131Z,70.83
2017-09-22T13:35:34.041Z,70.84
2017-09-22T13:38:01.200Z,70.84
2017-09-22T13:40:28.370Z,70.83
2017-09-22T13:42:56.014Z,70.80
2017-09-22T13:45:23.206Z,70.77
2017-09-22T13:47:50.365Z,70.79
2017-09-22T13:50:17.524Z,70.77
2017-09-22T13:52:44.673Z,70.81
2017-09-22T13:55:11.829Z,70.84
2017-09-22T13:57:38.984Z,70.80
2017-09-22T14:00:06.146Z,70.81
2017-09-22T14:02:33.331Z,70.84
2017-09-22T14:05:00.473Z,70.85
2017-09-22T14:07:27.622Z,70.80
2017-09-22T14:09:54.779Z,70.81
2017-09-22T14:12:21.939Z,70.83
2017-09-22T14:14:49.096Z,70.83
2017-09-22T14:17:16.262Z,70.81
2017-09-22T14:19:43.410Z,70.80
2017-09-22T14:22:10.569Z,70.80
2017-09-22T14:24:37.729Z,70.83
2017-09-22T14:27:04.875Z,70.84
2017-09-22T14:29:32.040Z,70.83
2017-09-22T14:31:59.202Z,70.79
2017-09-22T14:34:26.358Z,70.81
2017-09-22T14:36:53.502Z,70.81
2017-09-22T14:39:20.664Z,70.83
2017-09-22T14:41:47.824Z,70.79
2017-09-22T14:44:14.982Z,70.82
2017-09-22T14:46:42.172Z,70.81
2017-09-22T14:49:10.090Z,70.82
2017-09-22T14:51:37.238Z,70.84
2017-09-22T14:54:04.394Z,70.82
2017-09-22T14:56:31.537Z,70.84
2017-09-22T14:58:58.676Z,70.84
2017-09-22T15:01:25.995Z,70.84
2017-09-22T15:03:53.911Z,70.86
2017-09-22T15:06:21.049Z,70.85
2017-09-22T15:08:48.212Z,70.87
2017-09-22T15:11:15.376Z,70.87
2017-09-22T15:13:42.518Z,70.87
2017-09-22T15:16:09.661Z,70.87
2017-09-22T15:18:36.803Z,70.86
2017-09-22T15:21:03.942Z,70.85
2017-09-22T15:23:31.094Z,70.86
2017-09-22T15:25:58.253Z,70.88
2017-09-22T15:28:25.421Z,70.88
2017-09-22T15:30:52.558Z,70.87
2017-09-22T15:33:19.713Z,70.87
2017-09-22T15:35:46.872Z,70.88
2017-09-22T15:38:14.009Z,70.89
2017-09-22T15:40:41.153Z,70.89
2017-09-22T15:43:08.308Z,70.86
2017-09-22T15:45:35.471Z,70.87
2017-09-22T15:48:02.606Z,70.89
2017-09-22T15:50:29.750Z,70.90
2017-09-22T15:52:56.899Z,70.90
2017-09-22T15:55:24.046Z,70.90
2017-09-22T15:57:51.200Z,70.90
2017-09-22T16:00:18.351Z,70.92
2017-09-22T16:02:45.499Z,70.90
2017-09-22T16:05:12.666Z,70.90
2017-09-22T16:07:39.832Z,70.92
2017-09-22T16:10:06.970Z,70.93
2017-09-22T16:12:34.122Z,70.90
2017-09-22T16:15:01.283Z,70.89
2017-09-22T16:17:28.447Z,70.88
2017-09-22T16:19:55.642Z,70.88
2017-09-22T16:22:22.804Z,70.90
2017-09-22T16:24:49.938Z,70.91
2017-09-22T16:27:17.074Z,70.90
2017-09-22T16:29:44.959Z,70.90
2017-09-22T16:32:13.034Z,70.90
2017-09-22T16:34:40.475Z,70.93
2017-09-22T16:37:07.922Z,70.94
2017-09-22T16:39:35.851Z,70.93
2017-09-22T16:42:03.012Z,70.93
2017-09-22T16:44:30.154Z,70.94
2017-09-22T16:46:57.297Z,70.94
2017-09-22T16:49:24.461Z,70.94
2017-09-22T16:51:51.601Z,70.93
2017-09-22T16:54:18.755Z,70.95
2017-09-22T16:56:45.909Z,70.94
2017-09-22T16:59:13.069Z,70.95
2017-09-22T17:01:40.238Z,70.96
2017-09-22T17:04:07.397Z,70.94
2017-09-22T17:06:34.556Z,70.96
2017-09-22T17:09:01.725Z,70.96
2017-09-22T17:11:28.869Z,70.96
2017-09-22T17:13:56.006Z,70.97
2017-09-22T17:16:23.252Z,70.98
2017-09-22T17:18:50.444Z,70.98
2017-09-22T17:21:17.605Z,70.96
2017-09-22T17:23:44.746Z,70.94
2017-09-22T17:26:11.903Z,70.96
2017-09-22T17:28:39.049Z,70.95
2017-09-22T17:31:06.212Z,70.97
2017-09-22T17:33:33.381Z,70.97
2017-09-22T17:36:00.530Z,70.98
2017-09-22T17:38:27.686Z,70.97
2017-09-22T17:40:54.845Z,71.01
2017-09-22T17:43:21.999Z,71.02
2017-09-22T17:45:49.235Z,70.99
2017-09-22T17:48:16.948Z,70.98
2017-09-22T17:50:44.092Z,71.00
2017-09-22T17:53:11.292Z,71.01
2017-09-22T17:55:38.477Z,71.01
2017-09-22T17:58:05.622Z,71.02
2017-09-22T18:00:32.762Z,71.03
2017-09-22T18:02:59.906Z,71.01
2017-09-22T18:05:27.069Z,71.03
2017-09-22T18:07:54.236Z,71.01
2017-09-22T18:10:21.399Z,71.03
2017-09-22T18:12:48.541Z,71.02
2017-09-22T18:15:15.704Z,71.02
2017-09-22T18:17:42.868Z,71.02
2017-09-22T18:20:10.073Z,71.01
2017-09-22T18:22:37.233Z,71.01
2017-09-22T18:25:04.391Z,71.04
2017-09-22T18:27:31.553Z,71.04
2017-09-22T18:29:58.716Z,71.07
2017-09-22T18:32:25.853Z,71.07
2017-09-22T18:34:53.009Z,71.07
2017-09-22T18:37:20.163Z,71.07
2017-09-22T18:39:47.310Z,71.07
2017-09-22T18:42:14.980Z,71.07
2017-09-22T18:44:42.153Z,71.07
2017-09-22T18:47:09.354Z,71.08
2017-09-22T18:49:37.453Z,71.11
2017-09-22T18:52:04.880Z,71.09
2017-09-22T18:54:32.026Z,71.08
2017-09-22T18:56:59.221Z,71.08
2017-09-22T18:59:26.641Z,71.09
2017-09-22T19:01:53.794Z,71.11
2017-09-22T19:04:20.957Z,71.11
2017-09-22T19:06:50.381Z,71.08
2017-09-22T19:09:17.526Z,71.13
2017-09-22T19:11:44.669Z,71.15
2017-09-22T19:14:11.814Z,71.17
2017-09-22T19:16:38.976Z,71.17
2017-09-22T19:19:06.132Z,71.16
2017-09-22T19:21:33.276Z,71.14
2017-09-22T19:24:00.500Z,71.13
2017-09-22T19:26:27.668Z,71.13
2017-09-22T19:28:54.841Z,71.13
2017-09-22T19:31:22.018Z,71.16
2017-09-22T19:33:51.168Z,71.16
2017-09-22T19:36:18.377Z,71.14
2017-09-22T19:38:45.535Z,71.17
2017-09-22T19:41:17.406Z,71.16
2017-09-22T19:43:45.261Z,71.16
2017-09-22T19:46:12.425Z,71.15
2017-09-22T19:48:39.824Z,71.14
2017-09-22T19:51:07.170Z,71.17
2017-09-22T19:53:34.309Z,71.19
2017-09-22T19:56:01.449Z,71.19
2017-09-22T19:58:28.753Z,71.16
2017-09-22T20:00:55.938Z,71.15
2017-09-22T20:03:23.101Z,71.16
2017-09-22T20:05:50.451Z,71.17
2017-09-22T20:08:17.641Z,71.17
2017-09-22T20:10:44.996Z,71.20
2017-09-22T20:13:12.134Z,71.22
2017-09-22T20:15:39.277Z,71.20
2017-09-22T20:18:06.446Z,71.20
2017-09-22T20:20:33.606Z,71.20
2017-09-22T20:23:00.763Z,71.19
2017-09-22T20:25:28.674Z,71.19
2017-09-22T20:27:56.021Z,71.20
2017-09-22T20:30:23.167Z,71.22
2017-09-22T20:32:50.302Z,71.22
2017-09-22T20:35:18.234Z,71.24
2017-09-22T20:37:45.391Z,71.23
2017-09-22T20:40:12.550Z,71.21
2017-09-22T20:42:39.703Z,71.21
2017-09-22T20:45:06.858Z,71.22
2017-09-22T20:47:34.020Z,71.23
2017-09-22T20:50:01.161Z,71.21
2017-09-22T20:52:28.417Z,71.22
2017-09-22T20:54:56.710Z,71.23
2017-09-22T20:57:23.866Z,71.25
2017-09-22T20:59:51.013Z,71.27
2017-09-22T21:02:18.172Z,71.27
2017-09-22T21:04:45.419Z,71.24
2017-09-22T21:07:12.567Z,71.24
2017-09-22T21:09:39.728Z,71.27
2017-09-22T21:12:06.867Z,71.26
2017-09-22T21:14:34.235Z,71.22
2017-09-22T21:17:01.396Z,71.22
2017-09-22T21:19:30.158Z,71.20
2017-09-22T21:21:57.311Z,71.21
2017-09-22T21:24:24.471Z,71.19
2017-09-22T21:26:51.629Z,71.22
2017-09-22T21:29:18.775Z,71.21
2017-09-22T21:31:45.941Z,71.26
2017-09-22T21:34:13.101Z,71.29
2017-09-22T21:36:40.245Z,71.30
2017-09-22T21:39:07.381Z,71.29
2017-09-22T21:41:34.535Z,71.25
2017-09-22T21:44:01.969Z,71.24
2017-09-22T21:46:29.276Z,71.28
2017-09-22T21:48:57.589Z,71.28
2017-09-22T21:51:24.941Z,71.28
2017-09-22T21:53:52.077Z,71.28
2017-09-22T21:56:20.253Z,71.27
2017-09-22T21:58:47.824Z,71.29
2017-09-22T22:01:15.265Z,71.24
2017-09-22T22:03:48.158Z,71.24
2017-09-22T22:06:21.249Z,71.25
2017-09-22T22:09:06.543Z,71.28
2017-09-22T22:11:34.031Z,71.26
2017-09-22T22:14:01.750Z,71.28
2017-09-22T22:16:29.021Z,71.27
2017-09-22T22:18:56.482Z,71.24
2017-09-22T22:21:24.247Z,71.27
2017-09-22T22:23:51.771Z,71.30
2017-09-22T22:26:19.167Z,71.30
2017-09-22T22:28:46.704Z,71.29
2017-09-22T22:31:14.146Z,71.28
2017-09-22T22:33:41.540Z,71.31
2017-09-22T22:36:09.183Z,71.32
2017-09-22T22:38:36.496Z,71.29
2017-09-22T22:41:04.041Z,71.24
2017-09-22T22:43:31.556Z,71.27
2017-09-22T22:45:58.793Z,71.27
2017-09-22T22:48:28.328Z,71.25
2017-09-22T22:50:55.608Z,71.29
2017-09-22T22:53:23.266Z,71.30
2017-09-22T22:55:50.800Z,71.26
2017-09-22T22:58:17.995Z,71.27
2017-09-22T23:00:45.713Z,71.26
2017-09-22T23:03:13.394Z,71.25
2017-09-22T23:05:40.689Z,71.26
2017-09-22T23:08:08.205Z,71.23
2017-09-22T23:10:35.392Z,71.23
2017-09-22T23:13:02.864Z,71.29
2017-09-22T23:15:30.209Z,71.28
2017-09-22T23:17:57.853Z,71.31
2017-09-22T23:20:26.219Z,71.29
2017-09-22T23:22:53.509Z,71.29
2017-09-22T23:25:20.953Z,71.30
2017-09-22T23:27:49.965Z,71.29
2017-09-22T23:30:19.116Z,71.27
2017-09-22T23:32:48.092Z,71.28
2017-09-22T23:35:16.445Z,71.31
2017-09-22T23:37:44.022Z,71.31
2017-09-22T23:40:11.682Z,71.33
2017-09-22T23:42:39.149Z,71.32
2017-09-22T23:45:06.467Z,71.33
2017-09-22T23:47:33.985Z,71.33
2017-09-22T23:50:01.549Z,71.31
2017-09-22T23:52:28.840Z,71.31
2017-09-22T23:54:56.217Z,71.32
2017-09-22T23:57:23.852Z,71.31
2017-09-22T23:59:51.134Z,71.34
